createdAt,value
2017-07-01T00:00:01.576Z,2.20
2017-07-01T00:02:28.171Z,1.92
2017-07-01T00:04:54.707Z,2.40
2017-07-01T00:07:21.181Z,2.40
2017-07-01T00:09:47.743Z,1.60
2017-07-01T00:12:14.213Z,3.10
2017-07-01T00:14:40.692Z,1.80
2017-07-01T00:17:07.181Z,2.17
2017-07-01T00:19:33.685Z,2.20
2017-07-01T00:22:00.549Z,1.80
2017-07-01T00:24:27.034Z,1.73
2017-07-01T00:26:53.553Z,2.40
2017-07-01T00:29:20.696Z,2.62
2017-07-01T00:31:47.832Z,1.87
2017-07-01T00:34:14.378Z,3.10
2017-07-01T00:36:40.894Z,2.05
2017-07-01T00:39:08.182Z,1.60
2017-07-01T00:41:35.254Z,1.50
2017-07-01T00:44:01.915Z,2.08
2017-07-01T00:46:28.472Z,1.80
2017-07-01T00:48:54.962Z,2.15
2017-07-01T00:51:21.471Z,1.80
2017-07-01T00:53:48.710Z,1.70
2017-07-01T00:56:15.821Z,1.95
2017-07-01T00:58:43.207Z,2.33
2017-07-01T01:01:09.827Z,1.60
2017-07-01T01:03:36.364Z,2.08
2017-07-01T01:06:02.916Z,1.60
2017-07-01T01:08:29.430Z,1.80
2017-07-01T01:10:57.942Z,3.03
2017-07-01T01:13:24.489Z,1.12
2017-07-01T01:15:51.768Z,1.60
2017-07-01T01:18:18.985Z,1.70
2017-07-01T01:20:45.553Z,1.48
2017-07-01T01:23:12.086Z,1.20
2017-07-01T01:25:38.616Z,2.22
2017-07-01T01:28:05.789Z,2.10
2017-07-01T01:30:33.068Z,1.80
2017-07-01T01:32:59.609Z,1.65
2017-07-01T01:35:26.874Z,2.10
2017-07-01T01:37:53.506Z,2.00
2017-07-01T01:40:20.528Z,2.53
2017-07-01T01:42:47.046Z,1.70
2017-07-01T01:45:13.630Z,1.50
2017-07-01T01:47:40.929Z,2.35
2017-07-01T01:50:07.466Z,1.77
2017-07-01T01:52:34.791Z,2.62
2017-07-01T01:55:01.413Z,3.20
2017-07-01T01:57:28.073Z,1.80
2017-07-01T01:59:54.735Z,1.70
2017-07-01T02:02:21.397Z,1.60
2017-07-01T02:04:47.937Z,2.00
2017-07-01T02:07:15.335Z,1.60
2017-07-01T02:09:42.051Z,2.60
2017-07-01T02:12:08.658Z,1.60
2017-07-01T02:14:35.241Z,1.90
2017-07-01T02:17:20.484Z,2.25
2017-07-01T02:19:47.032Z,1.50
2017-07-01T02:22:16.237Z,1.52
2017-07-01T02:24:49.566Z,1.60
2017-07-01T02:27:16.126Z,1.83
2017-07-01T02:29:42.655Z,1.42
2017-07-01T02:32:09.332Z,2.20
2017-07-01T02:34:36.614Z,2.95
2017-07-01T02:37:04.806Z,1.62
2017-07-01T02:39:35.909Z,2.40
2017-07-01T02:42:02.474Z,2.15
2017-07-01T02:44:29.020Z,1.50
2017-07-01T02:47:02.313Z,1.50
2017-07-01T02:49:34.993Z,1.70
2017-07-01T02:52:22.163Z,1.85
2017-07-01T02:55:00.815Z,1.52
2017-07-01T02:57:28.095Z,2.22
2017-07-01T02:59:55.357Z,3.58
2017-07-01T03:02:23.855Z,1.70
2017-07-01T03:04:50.416Z,1.83
2017-07-01T03:07:16.949Z,2.62
2017-07-01T03:09:45.045Z,1.60
2017-07-01T03:12:11.660Z,2.28
2017-07-01T03:14:38.238Z,1.50
2017-07-01T03:17:04.832Z,1.77
2017-07-01T03:19:31.388Z,1.70
2017-07-01T03:21:57.992Z,2.45
2017-07-01T03:24:24.553Z,1.70
2017-07-01T03:26:51.213Z,3.03
2017-07-01T03:29:26.666Z,1.90
2017-07-01T03:31:53.328Z,1.70
2017-07-01T03:34:19.874Z,1.60
2017-07-01T03:36:47.945Z,2.10
2017-07-01T03:39:26.710Z,2.65
2017-07-01T03:42:05.568Z,3.17
2017-07-01T03:44:50.972Z,1.95
2017-07-01T03:47:22.292Z,2.22
2017-07-01T03:49:48.941Z,3.10
2017-07-01T03:52:15.495Z,1.98
2017-07-01T03:54:45.395Z,3.70
2017-07-01T03:57:11.947Z,3.23
2017-07-01T03:59:38.522Z,2.50
2017-07-01T04:02:05.073Z,2.30
2017-07-01T04:04:33.666Z,1.70
2017-07-01T04:07:00.184Z,1.33
2017-07-01T04:09:26.730Z,1.58
2017-07-01T04:11:53.804Z,1.65
2017-07-01T04:14:20.340Z,2.70
2017-07-01T04:16:47.616Z,1.30
2017-07-01T04:19:15.217Z,2.20
2017-07-01T04:21:41.748Z,2.12
2017-07-01T04:24:09.020Z,1.70
2017-07-01T04:26:36.334Z,2.10
2017-07-01T04:29:02.845Z,2.45
2017-07-01T04:31:29.408Z,2.35
2017-07-01T04:33:55.930Z,1.73
2017-07-01T04:36:22.552Z,1.70
2017-07-01T04:39:04.797Z,1.75
2017-07-01T04:41:48.190Z,2.50
2017-07-01T04:44:15.357Z,2.60
2017-07-01T04:46:42.668Z,2.47
2017-07-01T04:49:09.222Z,1.70
2017-07-01T04:51:53.454Z,1.55
2017-07-01T04:54:24.603Z,1.40
2017-07-01T04:57:31.063Z,1.20
2017-07-01T05:00:16.198Z,1.15
2017-07-01T05:02:42.790Z,1.50
2017-07-01T05:05:09.324Z,1.77
2017-07-01T05:10:44.963Z,1.70
2017-07-01T05:13:11.564Z,1.10
2017-07-01T05:15:42.992Z,1.20
2017-07-01T05:18:09.575Z,1.37
2017-07-01T05:20:55.750Z,0.80
2017-07-01T05:23:29.808Z,1.70
2017-07-01T05:26:04.094Z,1.70
2017-07-01T05:28:32.482Z,1.67
2017-07-01T05:30:59.025Z,1.17
2017-07-01T05:33:27.250Z,2.03
2017-07-01T05:36:10.728Z,2.10
2017-07-01T05:38:49.094Z,0.80
2017-07-01T05:41:17.738Z,0.95
2017-07-01T05:43:50.127Z,1.30
2017-07-01T05:46:17.447Z,0.70
2017-07-01T05:48:57.609Z,1.70
2017-07-01T05:51:24.650Z,0.98
2017-07-01T05:53:51.222Z,1.55
2017-07-01T05:56:19.809Z,1.30
2017-07-01T05:58:46.429Z,1.10
2017-07-01T06:01:13.027Z,1.00
2017-07-01T06:03:39.676Z,0.70
2017-07-01T06:06:06.961Z,1.50
2017-07-01T06:08:33.592Z,0.60
2017-07-01T06:11:01.150Z,0.70
2017-07-01T06:13:40.650Z,1.35
2017-07-01T06:16:07.241Z,0.80
2017-07-01T06:18:38.060Z,1.45
2017-07-01T06:21:26.608Z,1.00
2017-07-01T06:23:57.156Z,1.10
2017-07-01T06:26:45.550Z,1.58
2017-07-01T06:29:35.214Z,1.10
2017-07-01T06:32:24.433Z,0.80
2017-07-01T06:35:25.649Z,1.90
2017-07-01T06:38:15.543Z,0.63
2017-07-01T06:40:53.205Z,1.60
2017-07-01T06:43:19.723Z,1.15
2017-07-01T06:45:46.245Z,0.90
2017-07-01T06:48:15.588Z,0.60
2017-07-01T06:50:42.192Z,1.50
2017-07-01T06:53:08.750Z,0.75
2017-07-01T06:55:35.360Z,0.70
2017-07-01T06:58:01.936Z,1.10
2017-07-01T07:00:28.579Z,0.90
2017-07-01T07:02:55.114Z,1.12
2017-07-01T07:05:22.428Z,0.90
2017-07-01T07:07:49.068Z,0.85
2017-07-01T07:10:15.628Z,0.90
2017-07-01T07:12:42.292Z,0.70
2017-07-01T07:15:08.948Z,1.60
2017-07-01T07:17:36.327Z,1.47
2017-07-01T07:20:02.914Z,0.90
2017-07-01T07:22:29.544Z,0.98
2017-07-01T07:24:57.023Z,0.88
2017-07-01T07:27:23.787Z,0.82
2017-07-01T07:29:50.329Z,0.90
2017-07-01T07:32:17.741Z,0.85
2017-07-01T07:34:44.815Z,0.80
2017-07-01T07:37:11.400Z,0.80
2017-07-01T07:39:37.907Z,0.82
2017-07-01T07:42:04.367Z,1.48
2017-07-01T07:44:30.922Z,1.47
2017-07-01T07:46:57.445Z,0.80
2017-07-01T07:49:23.896Z,0.88
2017-07-01T07:51:50.349Z,1.10
2017-07-01T07:54:17.000Z,2.90
2017-07-01T07:56:43.412Z,0.70
2017-07-01T07:59:09.971Z,0.80
2017-07-01T08:01:36.432Z,1.50
2017-07-01T08:04:02.898Z,1.60
2017-07-01T08:06:29.286Z,0.70
2017-07-01T08:08:55.709Z,2.10
2017-07-01T08:11:22.227Z,0.75
2017-07-01T08:13:49.457Z,1.85
2017-07-01T08:16:15.980Z,1.40
2017-07-01T08:18:42.437Z,0.75
2017-07-01T08:21:08.993Z,1.00
2017-07-01T08:23:35.445Z,1.37
2017-07-01T08:27:45.610Z,1.70
2017-07-01T08:30:12.275Z,1.80
2017-07-01T08:32:38.851Z,3.30
2017-07-01T08:35:05.277Z,1.00
2017-07-01T08:37:32.450Z,1.12
2017-07-01T08:39:59.655Z,1.23
2017-07-01T08:42:26.114Z,1.00
2017-07-01T08:44:52.572Z,1.10
2017-07-01T08:47:19.008Z,1.40
2017-07-01T08:49:45.657Z,1.25
2017-07-01T08:52:12.220Z,0.80
2017-07-01T08:54:38.687Z,2.00
2017-07-01T08:57:05.171Z,1.70
2017-07-01T08:59:31.652Z,1.20
2017-07-01T09:01:58.157Z,1.80
2017-07-01T09:04:24.803Z,1.00
2017-07-01T09:06:51.466Z,0.70
2017-07-01T09:09:19.352Z,1.12
2017-07-01T09:11:46.305Z,1.60
2017-07-01T09:14:13.487Z,0.80
2017-07-01T09:16:40.255Z,1.20
2017-07-01T09:19:06.777Z,0.90
2017-07-01T09:21:33.279Z,0.90
2017-07-01T09:23:59.827Z,1.20
2017-07-01T09:26:26.307Z,0.80
2017-07-01T09:28:52.845Z,0.73
2017-07-01T09:31:19.305Z,1.30
2017-07-01T09:33:45.782Z,2.55
2017-07-01T09:36:12.299Z,0.77
2017-07-01T09:38:41.063Z,0.80
2017-07-01T09:41:07.533Z,1.90
2017-07-01T09:43:33.944Z,1.17
2017-07-01T09:46:00.418Z,1.50
2017-07-01T09:48:27.016Z,1.17
2017-07-01T09:50:53.710Z,4.90
2017-07-01T09:53:20.211Z,1.70
2017-07-01T09:55:47.678Z,0.70
2017-07-01T09:58:14.283Z,0.80
2017-07-01T10:00:41.577Z,0.80
2017-07-01T10:03:08.053Z,0.70
2017-07-01T10:05:34.593Z,1.02
2017-07-01T10:08:01.156Z,4.70
2017-07-01T10:10:27.709Z,0.80
2017-07-01T10:12:54.895Z,2.00
2017-07-01T10:15:21.379Z,0.90
2017-07-01T10:17:48.203Z,0.82
2017-07-01T10:20:14.724Z,1.10
2017-07-01T10:22:41.323Z,1.20
2017-07-01T10:25:07.879Z,1.00
2017-07-01T10:27:35.446Z,1.30
2017-07-01T10:30:02.727Z,1.17
2017-07-01T10:32:30.078Z,0.70
2017-07-01T10:34:56.539Z,1.20
2017-07-01T10:37:23.740Z,1.25
2017-07-01T10:39:50.179Z,0.80
2017-07-01T10:42:17.401Z,1.80
2017-07-01T10:44:43.884Z,0.98
2017-07-01T10:47:10.340Z,0.80
2017-07-01T10:49:36.762Z,1.00
2017-07-01T10:52:03.242Z,1.70
2017-07-01T10:54:29.669Z,1.20
2017-07-01T10:56:56.129Z,2.60
2017-07-01T10:59:22.561Z,1.85
2017-07-01T11:01:48.981Z,1.65
2017-07-01T11:04:15.573Z,1.60
2017-07-01T11:06:42.631Z,1.10
2017-07-01T11:09:09.921Z,1.40
2017-07-01T11:11:36.431Z,1.30
2017-07-01T11:14:03.062Z,1.20
2017-07-01T11:16:29.521Z,1.20
2017-07-01T11:18:56.053Z,1.20
2017-07-01T11:21:22.518Z,1.00
2017-07-01T11:23:49.035Z,1.40
2017-07-01T11:26:15.601Z,1.83
2017-07-01T11:28:42.896Z,1.20
2017-07-01T11:31:10.346Z,1.20
2017-07-01T11:33:36.932Z,2.40
2017-07-01T11:36:04.310Z,1.30
2017-07-01T11:38:31.072Z,1.40
2017-07-01T11:40:57.629Z,1.40
2017-07-01T11:43:24.125Z,1.10
2017-07-01T11:45:50.593Z,1.30
2017-07-01T11:48:17.203Z,1.40
2017-07-01T11:50:43.686Z,3.60
2017-07-01T11:53:10.671Z,2.60
2017-07-01T11:55:37.189Z,1.30
2017-07-01T11:58:03.651Z,1.40
2017-07-01T12:00:30.775Z,1.60
2017-07-01T12:02:57.272Z,2.00
2017-07-01T12:05:23.797Z,1.58
2017-07-01T12:07:50.283Z,1.10
2017-07-01T12:10:16.703Z,1.30
2017-07-01T12:12:43.203Z,2.17
2017-07-01T12:15:09.754Z,1.00
2017-07-01T12:17:36.302Z,0.90
2017-07-01T12:20:04.247Z,2.35
2017-07-01T12:22:30.751Z,1.67
2017-07-01T12:24:58.040Z,1.20
2017-07-01T12:27:25.002Z,1.20
2017-07-01T12:29:51.868Z,1.00
2017-07-01T12:32:18.308Z,0.90
2017-07-01T12:34:45.529Z,1.12
2017-07-01T12:37:11.971Z,1.17
2017-07-01T12:39:38.874Z,1.00
2017-07-01T12:42:05.373Z,1.70
2017-07-01T12:44:31.934Z,1.40
2017-07-01T12:46:58.456Z,1.30
2017-07-01T12:49:25.165Z,1.30
2017-07-01T12:51:51.659Z,3.12
2017-07-01T12:54:18.887Z,5.68
2017-07-01T12:56:45.543Z,1.50
2017-07-01T12:59:12.105Z,1.60
2017-07-01T13:01:38.575Z,1.70
2017-07-01T13:04:05.119Z,5.60
2017-07-01T13:06:31.578Z,2.73
2017-07-01T13:08:58.130Z,6.45
2017-07-01T13:11:24.892Z,7.03
2017-07-01T13:13:51.369Z,3.73
2017-07-01T13:16:17.912Z,4.40
2017-07-01T13:18:44.469Z,2.40
2017-07-01T13:21:10.982Z,3.97
2017-07-01T13:23:37.480Z,3.12
2017-07-01T13:26:03.938Z,4.72
2017-07-01T13:28:30.426Z,2.33
2017-07-01T13:30:56.884Z,3.87
2017-07-01T13:33:23.306Z,4.37
2017-07-01T13:35:49.819Z,3.22
2017-07-01T13:38:16.308Z,3.25
2017-07-01T13:40:43.596Z,2.30
2017-07-01T13:43:10.081Z,2.10
2017-07-01T13:45:36.579Z,2.47
2017-07-01T13:48:03.170Z,2.17
2017-07-01T13:50:29.727Z,2.47
2017-07-01T13:52:56.187Z,2.15
2017-07-01T13:55:22.741Z,2.12
2017-07-01T13:57:49.219Z,2.00
2017-07-01T14:00:15.748Z,1.92
2017-07-01T14:02:42.233Z,4.07
2017-07-01T14:05:08.770Z,2.80
2017-07-01T14:07:35.270Z,1.20
2017-07-01T14:10:01.734Z,1.50
2017-07-01T14:12:28.233Z,2.10
2017-07-01T14:14:54.799Z,1.50
2017-07-01T14:17:21.356Z,1.30
2017-07-01T14:19:47.792Z,9.73
2017-07-01T14:22:15.026Z,3.90
2017-07-01T14:24:41.494Z,2.47
2017-07-01T14:27:08.269Z,3.65
2017-07-01T14:29:35.182Z,2.90
2017-07-01T14:32:01.729Z,8.00
2017-07-01T14:34:28.159Z,2.25
2017-07-01T14:36:54.656Z,6.47
2017-07-01T14:39:21.096Z,4.10
2017-07-01T14:41:47.556Z,5.65
2017-07-01T14:44:13.979Z,2.33
2017-07-01T14:46:41.288Z,2.00
2017-07-01T14:49:07.731Z,2.83
2017-07-01T14:51:35.015Z,3.13
2017-07-01T14:54:01.576Z,2.40
2017-07-01T14:56:28.013Z,2.30
2017-07-01T14:58:55.218Z,2.55
2017-07-01T15:01:21.760Z,2.70
2017-07-01T15:03:48.229Z,1.75
2017-07-01T15:06:14.960Z,1.80
2017-07-01T15:08:42.164Z,1.58
2017-07-01T15:11:08.708Z,1.37
2017-07-01T15:13:35.574Z,1.35
2017-07-01T15:16:02.066Z,6.30
2017-07-01T15:18:28.897Z,9.00
2017-07-01T15:20:55.454Z,1.83
2017-07-01T15:23:21.934Z,2.15
2017-07-01T15:25:48.449Z,2.03
2017-07-01T15:28:15.698Z,1.77
2017-07-01T15:30:42.696Z,2.80
2017-07-01T15:33:10.131Z,2.40
2017-07-01T15:35:36.649Z,1.25
2017-07-01T15:38:03.223Z,1.60
2017-07-01T15:40:29.680Z,2.03
2017-07-01T15:42:56.143Z,1.40
2017-07-01T15:45:23.197Z,1.80
2017-07-01T15:47:49.623Z,1.25
2017-07-01T15:50:16.298Z,1.30
2017-07-01T15:52:42.745Z,1.95
2017-07-01T15:55:09.939Z,1.50
2017-07-01T15:57:36.489Z,1.33
2017-07-01T16:00:03.008Z,1.40
2017-07-01T16:02:44.361Z,1.48
2017-07-01T16:05:10.827Z,1.50
2017-07-01T16:07:37.279Z,5.78
2017-07-01T16:10:04.122Z,1.40
2017-07-01T16:12:30.671Z,2.50
2017-07-01T16:14:57.126Z,1.10
2017-07-01T16:17:23.574Z,1.40
2017-07-01T16:19:50.770Z,1.60
2017-07-01T16:22:17.843Z,1.80
2017-07-01T16:24:44.299Z,2.83
2017-07-01T16:27:10.837Z,1.25
2017-07-01T16:29:37.287Z,1.80
2017-07-01T16:32:04.570Z,1.37
2017-07-01T16:34:31.229Z,1.10
2017-07-01T16:36:57.695Z,1.53
2017-07-01T16:39:24.243Z,1.10
2017-07-01T16:41:50.712Z,1.00
2017-07-01T16:44:17.171Z,1.15
2017-07-01T16:46:43.676Z,1.37
2017-07-01T16:49:10.239Z,1.23
2017-07-01T16:51:36.831Z,1.50
2017-07-01T16:54:03.388Z,1.60
2017-07-01T16:56:29.870Z,1.40
2017-07-01T16:58:56.334Z,1.30
2017-07-01T17:01:22.839Z,1.30
2017-07-01T17:03:49.314Z,1.30
2017-07-01T17:06:15.876Z,1.80
2017-07-01T17:08:42.632Z,1.70
2017-07-01T17:11:09.912Z,1.70
2017-07-01T17:13:36.473Z,1.80
2017-07-01T17:16:02.983Z,1.60
2017-07-01T17:18:29.484Z,1.70
2017-07-01T17:20:55.945Z,2.50
2017-07-01T17:23:22.499Z,3.33
2017-07-01T17:25:48.897Z,2.67
2017-07-01T17:28:15.413Z,1.90
2017-07-01T17:30:41.932Z,1.70
2017-07-01T17:33:08.363Z,1.70
2017-07-01T17:35:34.845Z,1.60
2017-07-01T17:38:01.285Z,1.58
2017-07-01T17:40:27.717Z,1.50
2017-07-01T17:42:54.136Z,1.70
2017-07-01T17:45:21.422Z,1.50
2017-07-01T17:47:47.878Z,1.50
2017-07-01T17:50:14.332Z,1.60
2017-07-01T17:52:41.384Z,1.50
2017-07-01T17:55:07.892Z,1.60
2017-07-01T17:57:34.358Z,1.80
2017-07-01T18:00:00.834Z,1.40
2017-07-01T18:02:27.306Z,1.45
2017-07-01T18:04:54.481Z,1.77
2017-07-01T18:07:21.780Z,1.50
2017-07-01T18:09:48.256Z,2.12
2017-07-01T18:12:14.792Z,2.00
2017-07-01T18:14:41.247Z,2.00
2017-07-01T18:17:08.701Z,2.00
2017-07-01T18:19:35.285Z,2.20
2017-07-01T18:22:01.751Z,1.90
2017-07-01T18:24:28.302Z,2.50
2017-07-01T18:26:54.848Z,1.70
2017-07-01T18:29:22.129Z,1.70
2017-07-01T18:31:48.697Z,2.60
2017-07-01T18:34:15.249Z,1.90
2017-07-01T18:36:41.745Z,2.22
2017-07-01T18:39:08.225Z,2.25
2017-07-01T18:41:34.775Z,1.92
2017-07-01T18:44:01.234Z,1.92
2017-07-01T18:46:27.701Z,1.90
2017-07-01T18:48:54.295Z,2.40
2017-07-01T18:51:20.850Z,2.10
2017-07-01T18:53:47.410Z,2.17
2017-07-01T18:56:13.898Z,1.90
2017-07-01T18:58:40.350Z,2.10
2017-07-01T19:01:06.882Z,2.08
2017-07-01T19:03:33.439Z,2.10
2017-07-01T19:05:59.938Z,1.90
2017-07-01T19:08:26.404Z,1.90
2017-07-01T19:10:52.855Z,2.10
2017-07-01T19:13:20.375Z,2.20
2017-07-01T19:15:47.611Z,2.37
2017-07-01T19:18:14.060Z,2.00
2017-07-01T19:20:40.573Z,2.00
2017-07-01T19:23:06.995Z,1.90
2017-07-01T19:25:33.595Z,2.10
2017-07-01T19:28:00.267Z,3.13
2017-07-01T19:30:41.701Z,1.98
2017-07-01T19:33:08.707Z,2.10
2017-07-01T19:35:35.266Z,2.10
2017-07-01T19:38:01.882Z,2.30
2017-07-01T19:40:28.364Z,2.10
2017-07-01T19:42:55.556Z,1.90
2017-07-01T19:45:22.046Z,2.00
2017-07-01T19:47:48.482Z,2.20
2017-07-01T19:50:15.024Z,2.20
2017-07-01T19:52:41.788Z,2.65
2017-07-01T19:55:08.274Z,2.20
2017-07-01T19:57:34.725Z,2.10
2017-07-01T20:00:01.258Z,2.08
2017-07-01T20:02:27.729Z,2.10
2017-07-01T20:04:54.200Z,2.20
2017-07-01T20:07:20.763Z,3.90
2017-07-01T20:09:47.287Z,2.35
2017-07-01T20:12:14.562Z,2.22
2017-07-01T20:14:41.045Z,2.10
2017-07-01T20:17:07.519Z,2.00
2017-07-01T20:19:33.951Z,2.12
2017-07-01T20:22:00.491Z,2.30
2017-07-01T20:24:26.957Z,2.00
2017-07-01T20:26:53.412Z,2.10
2017-07-01T20:29:19.959Z,4.60
2017-07-01T20:31:46.436Z,2.53
2017-07-01T20:34:12.976Z,2.42
2017-07-01T20:36:39.448Z,2.40
2017-07-01T20:39:06.090Z,2.00
2017-07-01T20:41:32.647Z,2.20
2017-07-01T20:43:59.208Z,3.35
2017-07-01T20:46:25.766Z,2.85
2017-07-01T20:48:52.228Z,2.20
2017-07-01T20:51:18.659Z,2.60
2017-07-01T20:53:45.951Z,2.40
2017-07-01T20:56:12.510Z,3.10
2017-07-01T20:58:38.975Z,2.50
2017-07-01T21:01:05.733Z,2.45
2017-07-01T21:03:32.227Z,2.20
2017-07-01T21:05:58.660Z,2.58
2017-07-01T21:08:25.248Z,2.47
2017-07-01T21:10:51.719Z,2.30
2017-07-01T21:13:18.160Z,2.15
2017-07-01T21:15:44.671Z,2.60
2017-07-01T21:18:11.124Z,2.30
2017-07-01T21:20:37.726Z,2.00
2017-07-01T21:23:04.246Z,2.30
2017-07-01T21:25:30.692Z,1.90
2017-07-01T21:27:57.975Z,1.95
2017-07-01T21:30:24.532Z,1.90
2017-07-01T21:32:51.090Z,2.05
2017-07-01T21:35:17.568Z,1.90
2017-07-01T21:37:44.009Z,1.98
2017-07-01T21:40:10.482Z,2.40
2017-07-01T21:42:37.028Z,1.90
2017-07-01T21:45:03.752Z,1.90
2017-07-01T21:47:30.340Z,2.37
2017-07-01T21:49:56.778Z,2.00
2017-07-01T21:52:23.961Z,2.00
2017-07-01T21:54:51.241Z,1.90
2017-07-01T21:57:17.799Z,1.30
2017-07-01T21:59:44.359Z,1.33
2017-07-01T22:02:10.918Z,1.62
2017-07-01T22:04:37.419Z,1.40
2017-07-01T22:07:03.900Z,1.48
2017-07-01T22:09:30.333Z,1.50
2017-07-01T22:11:57.260Z,1.20
2017-07-01T22:14:23.731Z,1.30
2017-07-01T22:16:50.668Z,1.20
2017-07-01T22:19:17.131Z,1.10
2017-07-01T22:21:43.580Z,1.10
2017-07-01T22:24:10.758Z,1.12
2017-07-01T22:26:37.318Z,1.10
2017-07-01T22:29:03.826Z,1.00
2017-07-01T22:31:30.334Z,1.00
2017-07-01T22:33:56.789Z,1.15
2017-07-01T22:36:23.448Z,0.90
2017-07-01T22:38:49.912Z,0.80
2017-07-01T22:41:16.360Z,0.90
2017-07-01T22:43:42.795Z,0.80
2017-07-01T22:46:10.021Z,1.02
2017-07-01T22:48:37.129Z,0.70
2017-07-01T22:51:03.620Z,0.80
2017-07-01T22:53:30.068Z,1.40
2017-07-01T22:55:57.282Z,0.70
2017-07-01T22:58:23.805Z,0.70
2017-07-01T23:00:50.265Z,0.60
2017-07-01T23:03:16.711Z,0.70
2017-07-01T23:05:43.952Z,0.80
2017-07-01T23:08:10.395Z,0.90
2017-07-01T23:10:36.903Z,1.10
2017-07-01T23:13:03.690Z,1.80
2017-07-01T23:15:30.150Z,2.90
2017-07-01T23:17:56.686Z,2.80
2017-07-01T23:20:23.239Z,3.10
2017-07-01T23:22:49.696Z,3.35
2017-07-01T23:25:16.152Z,4.30
2017-07-01T23:27:42.633Z,4.40
2017-07-01T23:30:09.072Z,4.90
2017-07-01T23:32:35.524Z,5.00
2017-07-01T23:35:01.963Z,5.57
2017-07-01T23:37:29.160Z,6.00
2017-07-01T23:39:55.588Z,5.97
2017-07-01T23:42:22.770Z,6.32
2017-07-01T23:44:49.925Z,7.00
2017-07-01T23:47:17.129Z,7.78
2017-07-01T23:49:43.549Z,7.70
2017-07-01T23:52:10.033Z,8.55
2017-07-01T23:54:36.593Z,7.65
2017-07-01T23:57:03.023Z,7.90
2017-07-01T23:59:29.503Z,7.90
